OIBB

Bushehr International Airport

Airport
ICAO code
OIBB
IATA Code
BUZ
Summary
ICAO Region
MID
ICAO Territory
Location

Bandar Bushehr, Bushehr

Serving
Bandar Bushehr
Elevation
68 ft
Coordinates
28° 57' 29" N , 50° 49' 32" E
KCC
Metar
Observation
OIBB 070300Z 12010KT 8000 TSRA FEW030CB BKN040 OVC090 17/15 Q1017 A3003
Station
Bushehr Civ / Afb
Date/Time
2022-12-07 03:00:00
Wind direction
120°
Wind speed
10 kts
Lowest cloud amount
few clouds
Temperature
17°C
Dew point
15°C
Humidity
88%
QNH
1017 hPa
Weather condition
n/a

A joint civil and military airport in Bushehr, Iran.

Climatology

Hot Semi-arid climate (Köppen climate classification BSh).

Runways

Designator Length Width Surface Rops
13L/31R 4469 45 ASP No/No
13R/31L 4470 45 ASP No/No

Airport map

Aerial View

SKYbrary Partners:

Safety knowledge contributed by: